createdAt,value
2023-01-07T09:37:34.733Z,96657.69
2023-01-07T09:41:32.028Z,96664.59
2023-01-07T09:42:56.674Z,96663.25
2023-01-07T09:44:15.329Z,96649.88
2023-01-07T09:45:21.016Z,96659.47
2023-01-07T09:46:23.441Z,96642.22
2023-01-07T09:47:29.350Z,96648.13
2023-01-07T09:48:42.017Z,96652.50
2023-01-07T09:49:47.538Z,96632.69
2023-01-07T09:51:45.618Z,96648.19
2023-01-07T09:52:51.927Z,96634.81
2023-01-07T09:53:56.940Z,96633.84
2023-01-07T09:55:25.104Z,96633.34
2023-01-07T09:56:32.535Z,96633.13
2023-01-07T09:57:34.147Z,96633.47
2023-01-07T09:58:37.883Z,96629.34
2023-01-07T09:59:39.469Z,96631.66
2023-01-07T10:00:55.118Z,96630.09
2023-01-07T10:02:17.912Z,96629.16
2023-01-07T10:03:44.654Z,96633.28
2023-01-07T10:05:24.757Z,96624.84
2023-01-07T10:06:49.317Z,96628.81
2023-01-07T10:08:29.206Z,96632.38
2023-01-07T10:09:50.525Z,96623.38
2023-01-07T10:10:58.538Z,96621.78
2023-01-07T10:12:17.709Z,96627.88
2023-01-07T10:13:24.953Z,96628.84
2023-01-07T10:14:45.350Z,96632.13
2023-01-07T10:15:55.673Z,96627.53
2023-01-07T10:17:21.871Z,96623.13
2023-01-07T10:18:38.627Z,96630.75
2023-01-07T10:19:57.126Z,96623.75
2023-01-07T10:21:24.609Z,96618.50
2023-01-07T10:22:32.711Z,96605.06
2023-01-07T10:23:38.566Z,96621.03
2023-01-07T10:24:44.882Z,96616.84
2023-01-07T10:25:50.410Z,96608.22
2023-01-07T10:26:56.035Z,96612.25
2023-01-07T10:28:03.308Z,96601.97
2023-01-07T10:29:40.745Z,96606.06
2023-01-07T10:30:46.017Z,96598.81
2023-01-07T10:31:50.437Z,96604.72
2023-01-07T10:33:04.397Z,96591.28
2023-01-07T10:34:14.368Z,96598.94
2023-01-07T10:35:20.453Z,96594.75
2023-01-07T10:36:32.437Z,96598.59
2023-01-07T10:37:37.372Z,96601.50
2023-01-07T10:38:42.897Z,96574.38
2023-01-07T10:39:59.722Z,96595.88
2023-01-07T10:41:12.866Z,96586.44
2023-01-07T10:42:23.983Z,96580.66
2023-01-07T10:43:44.178Z,96584.47
2023-01-07T10:45:18.152Z,96557.59
2023-01-07T10:46:41.187Z,96572.31
2023-01-07T10:48:01.444Z,96571.13
2023-01-07T10:49:16.015Z,96561.31
2023-01-07T10:50:24.109Z,96554.03
2023-01-07T10:52:10.663Z,96572.41
2023-01-07T10:53:33.531Z,96562.75
2023-01-07T10:54:50.171Z,96561.84
2023-01-07T10:56:09.503Z,96552.44
2023-01-07T10:57:18.351Z,96541.34
2023-01-07T10:58:19.818Z,96553.94
2023-01-07T10:59:22.587Z,96534.72
2023-01-07T11:00:25.083Z,96539.94
2023-01-07T11:01:41.257Z,96529.88
2023-01-07T11:02:50.604Z,96540.16
2023-01-07T11:03:54.111Z,96530.00
2023-01-07T11:04:57.058Z,96518.63
2023-01-07T11:06:04.753Z,96533.50
2023-01-07T11:07:13.778Z,96522.13
2023-01-07T11:08:38.740Z,96532.53
2023-01-07T11:09:43.823Z,96516.00
2023-01-07T11:10:45.246Z,96522.91
2023-01-07T11:11:48.234Z,96521.91
2023-01-07T11:12:52.338Z,96527.50
2023-01-07T11:14:26.622Z,96523.91
2023-01-07T11:15:50.498Z,96530.09
2023-01-07T11:16:56.894Z,96518.94
2023-01-07T11:18:31.866Z,96527.03
2023-01-07T11:19:52.523Z,96523.50
2023-01-07T11:20:55.863Z,96508.44
2023-01-07T11:21:57.255Z,96501.75
2023-01-07T11:22:58.803Z,96516.78
2023-01-07T11:24:01.807Z,96507.19
2023-01-07T11:25:28.364Z,96503.22
2023-01-07T11:26:32.872Z,96506.84
2023-01-07T11:27:34.946Z,96506.91
2023-01-07T11:28:40.765Z,96495.94
2023-01-07T11:29:56.012Z,96503.09
2023-01-07T11:31:00.951Z,96502.97
2023-01-07T11:32:03.903Z,96496.94
2023-01-07T11:33:07.069Z,96493.72
2023-01-07T11:34:20.159Z,96495.13
2023-01-07T11:35:23.281Z,96492.59
2023-01-07T11:36:42.303Z,96488.31
2023-01-07T11:37:46.631Z,96493.25
2023-01-07T11:38:48.121Z,96478.25
2023-01-07T11:40:01.395Z,96474.31
2023-01-07T11:41:05.123Z,96462.28
2023-01-07T11:42:37.783Z,96474.19
2023-01-07T11:43:40.679Z,96471.22
2023-01-07T11:44:42.198Z,96475.28
2023-01-07T11:46:20.254Z,96475.72
2023-01-07T11:47:18.021Z,96456.44
2023-01-07T11:48:36.646Z,96462.97
2023-01-07T11:49:44.388Z,96461.94
2023-01-07T11:51:05.428Z,96455.84
2023-01-07T11:52:16.904Z,96460.16
2023-01-07T11:53:18.230Z,96451.78
2023-01-07T11:54:26.136Z,96445.28
2023-01-07T11:55:28.749Z,96453.19
2023-01-07T11:56:33.178Z,96449.38
2023-01-07T11:57:34.583Z,96445.66
2023-01-07T11:58:44.665Z,96446.19
2023-01-07T11:59:46.254Z,96438.22
2023-01-07T12:01:12.888Z,96440.16
2023-01-07T12:02:26.478Z,96440.53
2023-01-07T12:03:27.981Z,96433.16
2023-01-07T12:04:35.793Z,96417.75
2023-01-07T12:05:39.215Z,96428.16
2023-01-07T12:06:44.342Z,96428.28
2023-01-07T12:07:51.474Z,96424.91
2023-01-07T12:09:15.013Z,96428.16
2023-01-07T12:10:26.894Z,96419.09
2023-01-07T12:11:34.433Z,96409.06
2023-01-07T12:12:39.200Z,96366.66
2023-01-07T12:13:47.930Z,96404.00
2023-01-07T12:14:49.687Z,96413.88
2023-01-07T12:15:58.260Z,96400.94
2023-01-07T12:17:17.076Z,96402.69
2023-01-07T12:18:41.350Z,96401.03
2023-01-07T12:20:13.294Z,96384.72
2023-01-07T12:21:24.082Z,96383.41
2023-01-07T12:22:39.827Z,96381.59
2023-01-07T12:23:52.899Z,96382.72
2023-01-07T12:25:21.948Z,96383.94
2023-01-07T12:26:35.802Z,96376.59
2023-01-07T12:27:46.343Z,96381.50
2023-01-07T12:28:50.767Z,96380.25
2023-01-07T12:30:20.638Z,96380.41
2023-01-07T12:31:49.493Z,96381.13
2023-01-07T12:33:00.184Z,96373.69
2023-01-07T12:34:22.356Z,96375.03
2023-01-07T12:35:35.329Z,96373.97
2023-01-07T12:36:54.951Z,96373.28
2023-01-07T12:38:09.055Z,96372.16
2023-01-07T12:39:27.022Z,96369.38
2023-01-07T12:40:49.718Z,96357.16
2023-01-07T12:43:30.900Z,96363.13
2023-01-07T12:44:34.716Z,96359.44
2023-01-07T12:45:54.364Z,96360.25
2023-01-07T12:47:32.010Z,96354.84
2023-01-07T12:48:36.893Z,96350.03
2023-01-07T12:50:02.755Z,96353.41
2023-01-07T12:51:14.264Z,96347.16
2023-01-07T12:52:29.888Z,96347.94
2023-01-07T12:54:12.876Z,96352.88
2023-01-07T12:55:22.296Z,96349.63
2023-01-07T12:56:32.980Z,96357.19
2023-01-07T12:57:37.918Z,96344.09
2023-01-07T12:59:45.960Z,96347.75
2023-01-07T13:00:46.634Z,96341.50
2023-01-07T13:02:12.882Z,96345.84
2023-01-07T13:03:28.212Z,96342.13
2023-01-07T13:04:42.974Z,96341.03
2023-01-07T13:06:06.822Z,96344.31
2023-01-07T13:07:21.151Z,96344.00
2023-01-07T13:08:43.354Z,96346.16
2023-01-07T13:09:59.737Z,96339.84
2023-01-07T13:11:14.886Z,96336.03
2023-01-07T13:12:46.518Z,96337.81
2023-01-07T13:13:53.182Z,96317.13
2023-01-07T13:14:58.869Z,96317.66
2023-01-07T13:16:00.853Z,96319.91
2023-01-07T13:17:16.142Z,96310.19
2023-01-07T13:18:19.841Z,96320.97
2023-01-07T13:19:21.484Z,96308.91
2023-01-07T13:20:50.865Z,96310.50
2023-01-07T13:21:52.670Z,96310.50
2023-01-07T13:22:56.480Z,96326.84
2023-01-07T13:24:56.403Z,96319.25
2023-01-07T13:25:53.898Z,96313.41
2023-01-07T13:27:23.628Z,96310.81
2023-01-07T13:28:52.749Z,96306.72
2023-01-07T13:30:00.219Z,96313.66
2023-01-07T13:31:26.676Z,96302.13
2023-01-07T13:32:50.060Z,96320.75
2023-01-07T13:34:03.614Z,96318.25
2023-01-07T13:35:36.699Z,96313.75
2023-01-07T13:37:03.602Z,96300.25
2023-01-07T13:38:19.032Z,96300.97
2023-01-07T13:39:23.348Z,96295.06
2023-01-07T13:41:05.179Z,96294.91
2023-01-07T13:42:27.214Z,96289.84
2023-01-07T13:43:49.725Z,96280.91
2023-01-07T13:44:57.024Z,96288.00
2023-01-07T13:46:03.093Z,96291.66
2023-01-07T13:47:05.468Z,96295.41
2023-01-07T13:48:18.908Z,96294.03
2023-01-07T13:49:25.547Z,96287.41
2023-01-07T13:50:38.269Z,96288.56
2023-01-07T13:51:39.769Z,96289.75
2023-01-07T13:52:45.808Z,96279.66
2023-01-07T13:53:47.509Z,96271.22
2023-01-07T13:54:48.892Z,96280.06
2023-01-07T13:55:50.739Z,96282.34
2023-01-07T13:56:52.564Z,96278.97
2023-01-07T13:57:53.916Z,96278.50
2023-01-07T13:58:56.969Z,96282.78
2023-01-07T14:00:01.508Z,96279.50
2023-01-07T14:01:16.240Z,96281.09
2023-01-07T14:02:29.338Z,96280.69
2023-01-07T14:03:34.486Z,96284.50
2023-01-07T14:04:48.175Z,96281.69
2023-01-07T14:05:49.622Z,96275.25
2023-01-07T14:06:52.558Z,96268.88
2023-01-07T14:08:02.310Z,96285.78
2023-01-07T14:09:06.645Z,96289.00
2023-01-07T14:10:37.613Z,96289.69
2023-01-07T14:12:07.661Z,96290.34
2023-01-07T14:13:27.223Z,96284.22
2023-01-07T14:14:49.435Z,96290.25
2023-01-07T14:16:14.921Z,96287.72
2023-01-07T14:17:40.207Z,96282.63
2023-01-07T14:18:53.464Z,96284.56
2023-01-07T14:20:20.467Z,96293.78
2023-01-07T14:21:35.255Z,96284.09
2023-01-07T14:23:19.944Z,96285.06
2023-01-07T14:24:51.694Z,96288.06
2023-01-07T14:26:08.295Z,96292.94
2023-01-07T14:27:58.398Z,96289.44
2023-01-07T14:29:40.735Z,96288.53
2023-01-07T14:30:44.940Z,96290.91
2023-01-07T14:31:46.616Z,96275.53
2023-01-07T14:33:17.777Z,96296.34
2023-01-07T14:34:26.645Z,96289.03
2023-01-07T14:35:38.359Z,96289.56
2023-01-07T14:37:01.565Z,96291.34
2023-01-07T14:38:28.051Z,96288.00
2023-01-07T14:39:44.166Z,96288.31
2023-01-07T14:40:45.483Z,96283.84
2023-01-07T14:42:18.985Z,96293.56
2023-01-07T14:43:43.286Z,96289.13
2023-01-07T14:44:51.252Z,96293.47
2023-01-07T14:45:54.413Z,96306.38
2023-01-07T14:46:56.120Z,96294.44
2023-01-07T14:47:57.849Z,96292.00
2023-01-07T14:49:02.215Z,96294.59
2023-01-07T14:50:25.509Z,96295.94
2023-01-07T14:51:57.638Z,96298.50
2023-01-07T14:53:29.474Z,96296.97
2023-01-07T14:55:00.756Z,96294.53
2023-01-07T14:56:09.407Z,96291.72
2023-01-07T14:57:46.622Z,96288.50
2023-01-07T14:59:07.895Z,96296.78
2023-01-07T15:00:41.050Z,96288.19
2023-01-07T15:01:54.403Z,96287.19
2023-01-07T15:03:17.927Z,96291.31
2023-01-07T15:04:51.985Z,96282.69
2023-01-07T15:06:46.983Z,96288.75
2023-01-07T15:07:52.132Z,96277.47
2023-01-07T15:09:21.331Z,96282.44
2023-01-07T15:10:44.801Z,96289.22
2023-01-07T15:12:06.450Z,96279.00
2023-01-07T15:13:34.168Z,96296.25
2023-01-07T15:15:02.297Z,96277.28
2023-01-07T15:16:11.359Z,96291.19
2023-01-07T15:17:15.034Z,96282.16
2023-01-07T15:18:16.570Z,96277.19
2023-01-07T15:19:18.102Z,96279.13
2023-01-07T15:20:19.583Z,96284.50
2023-01-07T15:21:41.404Z,96278.84
2023-01-07T15:22:51.860Z,96280.69
2023-01-07T15:24:15.025Z,96281.03
2023-01-07T15:25:34.718Z,96269.28
2023-01-07T15:26:38.679Z,96276.03
2023-01-07T15:28:15.697Z,96270.00
2023-01-07T15:29:43.364Z,96281.97
2023-01-07T15:30:58.229Z,96276.81
2023-01-07T15:32:08.709Z,96272.00
2023-01-07T15:33:41.065Z,96272.06
2023-01-07T15:34:43.755Z,96269.81
2023-01-07T15:35:46.167Z,96263.31
2023-01-07T15:36:52.180Z,96257.47
2023-01-07T15:37:53.764Z,96256.09
2023-01-07T15:38:57.730Z,96261.31
2023-01-07T15:39:59.442Z,96265.25
2023-01-07T15:41:01.020Z,96248.03
